sensor_id;sensor_type;location;lat;lon;timestamp;P1;durP1;ratioP1;P2;durP2;ratioP2
47764;SDS011;33529;49.242;8.670;2023-02-21T00:00:13;6.45;;;3.33;;
47764;SDS011;33529;49.242;8.670;2023-02-21T00:02:58;3.97;;;2.72;;
47764;SDS011;33529;49.242;8.670;2023-02-21T00:05:44;5.85;;;2.95;;
47764;SDS011;33529;49.242;8.670;2023-02-21T00:08:30;5.10;;;2.88;;
47764;SDS011;33529;49.242;8.670;2023-02-21T00:11:15;5.88;;;2.38;;
47764;SDS011;33529;49.242;8.670;2023-02-21T00:14:01;6.75;;;3.70;;
47764;SDS011;33529;49.242;8.670;2023-02-21T00:16:46;6.25;;;3.22;;
47764;SDS011;33529;49.242;8.670;2023-02-21T00:19:32;7.18;;;3.33;;
47764;SDS011;33529;49.242;8.670;2023-02-21T00:22:17;6.10;;;3.30;;
47764;SDS011;33529;49.242;8.670;2023-02-21T00:25:03;6.43;;;3.30;;
47764;SDS011;33529;49.242;8.670;2023-02-21T00:27:49;8.55;;;3.65;;
47764;SDS011;33529;49.242;8.670;2023-02-21T00:30:34;5.95;;;3.45;;
47764;SDS011;33529;49.242;8.670;2023-02-21T00:33:20;5.90;;;2.70;;
47764;SDS011;33529;49.242;8.670;2023-02-21T00:36:05;6.15;;;3.20;;
47764;SDS011;33529;49.242;8.670;2023-02-21T00:38:51;5.63;;;2.60;;
47764;SDS011;33529;49.242;8.670;2023-02-21T00:41:36;5.40;;;3.38;;
47764;SDS011;33529;49.242;8.670;2023-02-21T00:44:22;6.35;;;2.92;;
47764;SDS011;33529;49.242;8.670;2023-02-21T00:47:07;7.50;;;3.30;;
47764;SDS011;33529;49.242;8.670;2023-02-21T00:49:54;5.25;;;3.25;;
47764;SDS011;33529;49.242;8.670;2023-02-21T00:52:39;5.38;;;3.13;;
47764;SDS011;33529;49.242;8.670;2023-02-21T00:55:24;5.10;;;3.28;;
47764;SDS011;33529;49.242;8.670;2023-02-21T00:58:10;6.70;;;3.85;;
47764;SDS011;33529;49.242;8.670;2023-02-21T01:00:56;5.72;;;2.90;;
47764;SDS011;33529;49.242;8.670;2023-02-21T01:03:42;5.95;;;3.40;;
47764;SDS011;33529;49.242;8.670;2023-02-21T01:06:28;6.97;;;4.00;;
47764;SDS011;33529;49.242;8.670;2023-02-21T01:09:14;5.30;;;3.20;;
47764;SDS011;33529;49.242;8.670;2023-02-21T01:11:59;6.75;;;3.30;;
47764;SDS011;33529;49.242;8.670;2023-02-21T01:14:44;5.88;;;3.08;;
47764;SDS011;33529;49.242;8.670;2023-02-21T01:17:31;4.40;;;2.90;;
47764;SDS011;33529;49.242;8.670;2023-02-21T01:20:17;4.95;;;3.03;;
47764;SDS011;33529;49.242;8.670;2023-02-21T01:23:03;6.38;;;3.72;;
47764;SDS011;33529;49.242;8.670;2023-02-21T01:25:48;7.40;;;3.75;;
47764;SDS011;33529;49.242;8.670;2023-02-21T01:28:33;6.15;;;3.20;;
47764;SDS011;33529;49.242;8.670;2023-02-21T01:31:19;4.53;;;3.08;;
47764;SDS011;33529;49.242;8.670;2023-02-21T01:34:05;6.90;;;3.38;;
47764;SDS011;33529;49.242;8.670;2023-02-21T01:36:51;5.50;;;3.17;;
47764;SDS011;33529;49.242;8.670;2023-02-21T01:39:37;4.95;;;3.05;;
47764;SDS011;33529;49.242;8.670;2023-02-21T01:42:22;4.78;;;3.10;;
47764;SDS011;33529;49.242;8.670;2023-02-21T01:51:09;6.00;;;3.15;;
47764;SDS011;33529;49.242;8.670;2023-02-21T01:53:56;7.10;;;3.88;;
47764;SDS011;33529;49.242;8.670;2023-02-21T01:56:42;6.20;;;3.90;;
47764;SDS011;33529;49.242;8.670;2023-02-21T01:59:27;4.57;;;2.78;;
47764;SDS011;33529;49.242;8.670;2023-02-21T02:02:18;4.82;;;3.20;;
47764;SDS011;33529;49.242;8.670;2023-02-21T02:05:12;4.72;;;3.00;;
47764;SDS011;33529;49.242;8.670;2023-02-21T02:07:58;5.47;;;3.03;;
47764;SDS011;33529;49.242;8.670;2023-02-21T02:10:44;5.95;;;3.15;;
47764;SDS011;33529;49.242;8.670;2023-02-21T02:16:45;5.10;;;2.95;;
47764;SDS011;33529;49.242;8.670;2023-02-21T02:30:24;4.63;;;2.80;;
47764;SDS011;33529;49.242;8.670;2023-02-21T02:38:31;4.70;;;3.00;;
47764;SDS011;33529;49.242;8.670;2023-02-21T02:41:45;5.63;;;3.15;;
47764;SDS011;33529;49.242;8.670;2023-02-21T02:44:10;4.38;;;2.88;;
47764;SDS011;33529;49.242;8.670;2023-02-21T02:46:41;5.22;;;2.85;;
47764;SDS011;33529;49.242;8.670;2023-02-21T02:49:21;5.78;;;3.42;;
47764;SDS011;33529;49.242;8.670;2023-02-21T02:51:50;5.38;;;3.47;;
47764;SDS011;33529;49.242;8.670;2023-02-21T02:54:20;5.85;;;3.35;;
47764;SDS011;33529;49.242;8.670;2023-02-21T02:56:47;5.90;;;3.00;;
47764;SDS011;33529;49.242;8.670;2023-02-21T02:59:19;7.32;;;3.78;;
47764;SDS011;33529;49.242;8.670;2023-02-21T03:01:56;5.75;;;3.17;;
47764;SDS011;33529;49.242;8.670;2023-02-21T03:06:59;6.13;;;3.55;;
47764;SDS011;33529;49.242;8.670;2023-02-21T03:10:01;8.07;;;4.05;;
47764;SDS011;33529;49.242;8.670;2023-02-21T03:15:41;6.80;;;4.00;;
47764;SDS011;33529;49.242;8.670;2023-02-21T03:18:16;6.00;;;3.90;;
47764;SDS011;33529;49.242;8.670;2023-02-21T03:21:08;7.97;;;3.72;;
47764;SDS011;33529;49.242;8.670;2023-02-21T03:23:40;4.88;;;2.78;;
47764;SDS011;33529;49.242;8.670;2023-02-21T03:26:10;5.38;;;3.40;;
47764;SDS011;33529;49.242;8.670;2023-02-21T03:28:43;4.95;;;3.60;;
47764;SDS011;33529;49.242;8.670;2023-02-21T03:31:11;5.97;;;4.35;;
47764;SDS011;33529;49.242;8.670;2023-02-21T03:33:42;8.60;;;3.60;;
47764;SDS011;33529;49.242;8.670;2023-02-21T03:36:11;6.03;;;3.80;;
47764;SDS011;33529;49.242;8.670;2023-02-21T03:38:39;6.90;;;3.70;;
47764;SDS011;33529;49.242;8.670;2023-02-21T03:41:06;7.45;;;3.88;;
47764;SDS011;33529;49.242;8.670;2023-02-21T03:43:37;7.18;;;3.38;;
47764;SDS011;33529;49.242;8.670;2023-02-21T03:46:04;9.48;;;4.45;;
47764;SDS011;33529;49.242;8.670;2023-02-21T03:48:31;5.20;;;3.17;;
47764;SDS011;33529;49.242;8.670;2023-02-21T03:51:06;6.70;;;3.83;;
47764;SDS011;33529;49.242;8.670;2023-02-21T03:53:35;5.45;;;2.90;;
47764;SDS011;33529;49.242;8.670;2023-02-21T03:56:02;6.85;;;3.67;;
47764;SDS011;33529;49.242;8.670;2023-02-21T03:58:52;5.53;;;3.20;;
47764;SDS011;33529;49.242;8.670;2023-02-21T04:01:19;6.15;;;3.72;;
47764;SDS011;33529;49.242;8.670;2023-02-21T04:03:45;6.50;;;3.38;;
47764;SDS011;33529;49.242;8.670;2023-02-21T04:06:13;5.78;;;3.17;;
47764;SDS011;33529;49.242;8.670;2023-02-21T04:08:39;5.78;;;2.92;;
47764;SDS011;33529;49.242;8.670;2023-02-21T04:11:06;6.88;;;3.97;;
47764;SDS011;33529;49.242;8.670;2023-02-21T04:13:34;5.70;;;3.70;;
47764;SDS011;33529;49.242;8.670;2023-02-21T04:16:02;4.90;;;3.28;;
47764;SDS011;33529;49.242;8.670;2023-02-21T04:18:32;5.05;;;3.17;;
47764;SDS011;33529;49.242;8.670;2023-02-21T04:21:01;6.97;;;3.53;;
47764;SDS011;33529;49.242;8.670;2023-02-21T04:23:28;6.25;;;3.58;;
47764;SDS011;33529;49.242;8.670;2023-02-21T04:25:55;5.40;;;3.60;;
47764;SDS011;33529;49.242;8.670;2023-02-21T04:28:31;7.95;;;3.42;;
47764;SDS011;33529;49.242;8.670;2023-02-21T04:30:58;5.90;;;3.88;;
47764;SDS011;33529;49.242;8.670;2023-02-21T04:33:25;5.90;;;3.58;;
47764;SDS011;33529;49.242;8.670;2023-02-21T04:35:52;7.30;;;3.95;;
47764;SDS011;33529;49.242;8.670;2023-02-21T04:38:23;5.20;;;3.42;;
47764;SDS011;33529;49.242;8.670;2023-02-21T04:40:50;5.85;;;3.05;;
47764;SDS011;33529;49.242;8.670;2023-02-21T04:43:17;4.85;;;3.33;;
47764;SDS011;33529;49.242;8.670;2023-02-21T04:45:46;7.45;;;4.25;;
47764;SDS011;33529;49.242;8.670;2023-02-21T04:48:13;5.95;;;3.47;;
47764;SDS011;33529;49.242;8.670;2023-02-21T04:50:39;6.90;;;3.63;;
47764;SDS011;33529;49.242;8.670;2023-02-21T04:53:06;5.28;;;3.30;;
47764;SDS011;33529;49.242;8.670;2023-02-21T04:55:33;5.55;;;3.20;;
47764;SDS011;33529;49.242;8.670;2023-02-21T04:58:00;4.75;;;3.38;;
47764;SDS011;33529;49.242;8.670;2023-02-21T05:00:27;5.68;;;3.10;;
47764;SDS011;33529;49.242;8.670;2023-02-21T05:02:54;6.60;;;3.58;;
47764;SDS011;33529;49.242;8.670;2023-02-21T05:05:20;7.30;;;3.63;;
47764;SDS011;33529;49.242;8.670;2023-02-21T05:07:47;5.95;;;3.28;;
47764;SDS011;33529;49.242;8.670;2023-02-21T05:10:15;6.18;;;3.67;;
47764;SDS011;33529;49.242;8.670;2023-02-21T05:12:42;5.90;;;3.58;;
47764;SDS011;33529;49.242;8.670;2023-02-21T05:15:10;6.90;;;3.88;;
47764;SDS011;33529;49.242;8.670;2023-02-21T05:17:38;5.97;;;3.67;;
47764;SDS011;33529;49.242;8.670;2023-02-21T05:20:05;6.80;;;3.85;;
47764;SDS011;33529;49.242;8.670;2023-02-21T05:22:40;5.80;;;3.80;;
47764;SDS011;33529;49.242;8.670;2023-02-21T05:25:17;6.77;;;3.73;;
47764;SDS011;33529;49.242;8.670;2023-02-21T05:27:46;7.93;;;3.53;;
47764;SDS011;33529;49.242;8.670;2023-02-21T05:30:14;7.55;;;4.00;;
47764;SDS011;33529;49.242;8.670;2023-02-21T05:32:43;7.38;;;3.63;;
47764;SDS011;33529;49.242;8.670;2023-02-21T05:35:10;6.13;;;4.03;;
47764;SDS011;33529;49.242;8.670;2023-02-21T05:37:38;6.05;;;3.40;;
47764;SDS011;33529;49.242;8.670;2023-02-21T05:40:05;6.82;;;3.95;;
47764;SDS011;33529;49.242;8.670;2023-02-21T05:42:32;7.47;;;3.53;;
47764;SDS011;33529;49.242;8.670;2023-02-21T05:44:59;6.28;;;3.40;;
47764;SDS011;33529;49.242;8.670;2023-02-21T05:47:26;6.00;;;3.25;;
47764;SDS011;33529;49.242;8.670;2023-02-21T05:49:53;5.55;;;3.85;;
47764;SDS011;33529;49.242;8.670;2023-02-21T05:52:20;6.65;;;3.47;;
47764;SDS011;33529;49.242;8.670;2023-02-21T05:54:47;6.47;;;3.55;;
47764;SDS011;33529;49.242;8.670;2023-02-21T05:57:13;5.15;;;2.95;;
47764;SDS011;33529;49.242;8.670;2023-02-21T05:59:40;5.95;;;3.40;;
47764;SDS011;33529;49.242;8.670;2023-02-21T06:02:09;5.43;;;3.63;;
47764;SDS011;33529;49.242;8.670;2023-02-21T06:04:35;6.55;;;3.80;;
47764;SDS011;33529;49.242;8.670;2023-02-21T06:07:02;6.30;;;3.03;;
47764;SDS011;33529;49.242;8.670;2023-02-21T06:09:29;6.03;;;3.40;;
47764;SDS011;33529;49.242;8.670;2023-02-21T06:11:56;6.90;;;3.63;;
47764;SDS011;33529;49.242;8.670;2023-02-21T06:14:23;7.30;;;3.53;;
47764;SDS011;33529;49.242;8.670;2023-02-21T06:16:51;6.28;;;3.78;;
47764;SDS011;33529;49.242;8.670;2023-02-21T06:19:18;6.70;;;3.47;;
47764;SDS011;33529;49.242;8.670;2023-02-21T06:21:45;6.90;;;4.32;;
47764;SDS011;33529;49.242;8.670;2023-02-21T06:24:12;6.32;;;3.45;;
47764;SDS011;33529;49.242;8.670;2023-02-21T06:26:39;6.38;;;4.25;;
47764;SDS011;33529;49.242;8.670;2023-02-21T06:29:10;8.87;;;4.80;;
47764;SDS011;33529;49.242;8.670;2023-02-21T06:31:37;6.32;;;4.70;;
47764;SDS011;33529;49.242;8.670;2023-02-21T06:34:04;5.20;;;3.28;;
47764;SDS011;33529;49.242;8.670;2023-02-21T06:36:31;5.35;;;3.92;;
47764;SDS011;33529;49.242;8.670;2023-02-21T06:38:58;5.90;;;3.15;;
47764;SDS011;33529;49.242;8.670;2023-02-21T06:41:26;5.80;;;3.05;;
47764;SDS011;33529;49.242;8.670;2023-02-21T06:43:55;5.10;;;3.42;;
47764;SDS011;33529;49.242;8.670;2023-02-21T06:46:24;4.25;;;2.88;;
47764;SDS011;33529;49.242;8.670;2023-02-21T06:48:52;7.78;;;3.60;;
47764;SDS011;33529;49.242;8.670;2023-02-21T06:51:19;6.20;;;3.72;;
47764;SDS011;33529;49.242;8.670;2023-02-21T06:53:48;5.88;;;3.95;;
47764;SDS011;33529;49.242;8.670;2023-02-21T06:56:15;8.32;;;5.25;;
47764;SDS011;33529;49.242;8.670;2023-02-21T06:58:42;8.63;;;4.38;;
47764;SDS011;33529;49.242;8.670;2023-02-21T07:01:09;7.28;;;3.75;;
47764;SDS011;33529;49.242;8.670;2023-02-21T07:03:39;6.15;;;2.92;;
47764;SDS011;33529;49.242;8.670;2023-02-21T07:06:08;6.05;;;3.42;;
47764;SDS011;33529;49.242;8.670;2023-02-21T07:08:35;5.93;;;3.80;;
47764;SDS011;33529;49.242;8.670;2023-02-21T07:11:02;6.35;;;3.83;;
47764;SDS011;33529;49.242;8.670;2023-02-21T07:13:31;6.68;;;3.70;;
47764;SDS011;33529;49.242;8.670;2023-02-21T07:15:59;6.80;;;4.38;;
47764;SDS011;33529;49.242;8.670;2023-02-21T07:18:26;5.78;;;3.53;;
47764;SDS011;33529;49.242;8.670;2023-02-21T07:20:53;6.13;;;3.65;;
47764;SDS011;33529;49.242;8.670;2023-02-21T07:23:20;7.63;;;3.72;;
47764;SDS011;33529;49.242;8.670;2023-02-21T07:25:47;5.38;;;3.60;;
47764;SDS011;33529;49.242;8.670;2023-02-21T07:28:14;5.28;;;3.20;;
47764;SDS011;33529;49.242;8.670;2023-02-21T07:30:40;4.78;;;3.30;;
47764;SDS011;33529;49.242;8.670;2023-02-21T07:33:07;4.68;;;2.75;;
47764;SDS011;33529;49.242;8.670;2023-02-21T07:35:34;5.25;;;3.75;;
47764;SDS011;33529;49.242;8.670;2023-02-21T07:38:01;7.05;;;3.88;;
47764;SDS011;33529;49.242;8.670;2023-02-21T07:40:27;5.50;;;3.70;;
47764;SDS011;33529;49.242;8.670;2023-02-21T07:42:54;7.10;;;3.85;;
47764;SDS011;33529;49.242;8.670;2023-02-21T07:45:21;6.70;;;4.35;;
47764;SDS011;33529;49.242;8.670;2023-02-21T07:47:48;6.35;;;3.53;;
47764;SDS011;33529;49.242;8.670;2023-02-21T07:50:16;7.05;;;3.75;;
47764;SDS011;33529;49.242;8.670;2023-02-21T07:52:44;7.03;;;3.75;;
47764;SDS011;33529;49.242;8.670;2023-02-21T07:55:11;9.35;;;4.88;;
47764;SDS011;33529;49.242;8.670;2023-02-21T07:57:38;9.52;;;4.30;;
47764;SDS011;33529;49.242;8.670;2023-02-21T08:00:05;6.38;;;4.07;;
47764;SDS011;33529;49.242;8.670;2023-02-21T08:02:38;9.80;;;4.60;;
47764;SDS011;33529;49.242;8.670;2023-02-21T08:05:06;6.65;;;3.80;;
47764;SDS011;33529;49.242;8.670;2023-02-21T08:07:33;6.32;;;3.92;;
47764;SDS011;33529;49.242;8.670;2023-02-21T08:10:00;5.07;;;3.70;;
47764;SDS011;33529;49.242;8.670;2023-02-21T08:12:27;8.65;;;4.60;;
47764;SDS011;33529;49.242;8.670;2023-02-21T08:14:54;9.13;;;4.90;;
47764;SDS011;33529;49.242;8.670;2023-02-21T08:17:20;7.57;;;5.07;;
47764;SDS011;33529;49.242;8.670;2023-02-21T08:19:47;7.55;;;4.43;;
47764;SDS011;33529;49.242;8.670;2023-02-21T08:22:14;7.35;;;5.18;;
47764;SDS011;33529;49.242;8.670;2023-02-21T08:24:41;6.90;;;3.85;;
47764;SDS011;33529;49.242;8.670;2023-02-21T08:27:07;9.05;;;5.03;;
47764;SDS011;33529;49.242;8.670;2023-02-21T08:29:34;6.43;;;4.10;;
47764;SDS011;33529;49.242;8.670;2023-02-21T08:32:01;8.10;;;5.10;;
47764;SDS011;33529;49.242;8.670;2023-02-21T08:34:28;8.13;;;5.85;;
47764;SDS011;33529;49.242;8.670;2023-02-21T08:36:55;7.22;;;4.60;;
47764;SDS011;33529;49.242;8.670;2023-02-21T08:39:22;7.57;;;4.30;;
47764;SDS011;33529;49.242;8.670;2023-02-21T08:41:49;7.60;;;4.82;;
47764;SDS011;33529;49.242;8.670;2023-02-21T08:44:17;8.80;;;5.32;;
47764;SDS011;33529;49.242;8.670;2023-02-21T08:46:47;6.97;;;4.70;;
47764;SDS011;33529;49.242;8.670;2023-02-21T08:49:15;7.45;;;5.25;;
47764;SDS011;33529;49.242;8.670;2023-02-21T08:51:42;6.85;;;4.82;;
47764;SDS011;33529;49.242;8.670;2023-02-21T08:54:08;7.32;;;4.28;;
47764;SDS011;33529;49.242;8.670;2023-02-21T08:56:35;8.15;;;4.80;;
47764;SDS011;33529;49.242;8.670;2023-02-21T08:59:02;10.15;;;5.57;;
47764;SDS011;33529;49.242;8.670;2023-02-21T09:01:33;8.73;;;5.13;;
47764;SDS011;33529;49.242;8.670;2023-02-21T09:04:01;8.57;;;4.95;;
47764;SDS011;33529;49.242;8.670;2023-02-21T09:06:29;7.43;;;5.60;;
47764;SDS011;33529;49.242;8.670;2023-02-21T09:08:56;8.45;;;4.65;;
47764;SDS011;33529;49.242;8.670;2023-02-21T09:11:23;9.70;;;5.38;;
47764;SDS011;33529;49.242;8.670;2023-02-21T09:13:49;9.65;;;5.35;;
47764;SDS011;33529;49.242;8.670;2023-02-21T09:16:20;9.40;;;5.47;;
47764;SDS011;33529;49.242;8.670;2023-02-21T09:18:57;8.68;;;5.03;;
47764;SDS011;33529;49.242;8.670;2023-02-21T09:21:26;8.20;;;5.05;;
47764;SDS011;33529;49.242;8.670;2023-02-21T09:23:54;8.48;;;5.45;;
47764;SDS011;33529;49.242;8.670;2023-02-21T09:26:22;8.57;;;6.25;;
47764;SDS011;33529;49.242;8.670;2023-02-21T09:28:50;6.30;;;4.53;;
47764;SDS011;33529;49.242;8.670;2023-02-21T09:31:17;8.90;;;4.90;;
47764;SDS011;33529;49.242;8.670;2023-02-21T09:33:44;8.43;;;5.13;;
47764;SDS011;33529;49.242;8.670;2023-02-21T09:36:12;8.70;;;4.97;;
47764;SDS011;33529;49.242;8.670;2023-02-21T09:38:39;6.85;;;4.93;;
47764;SDS011;33529;49.242;8.670;2023-02-21T09:41:11;6.22;;;5.00;;
47764;SDS011;33529;49.242;8.670;2023-02-21T09:43:42;8.43;;;5.35;;
47764;SDS011;33529;49.242;8.670;2023-02-21T09:48:42;8.52;;;5.55;;
47764;SDS011;33529;49.242;8.670;2023-02-21T09:51:10;9.88;;;5.22;;
47764;SDS011;33529;49.242;8.670;2023-02-21T09:53:41;8.75;;;5.93;;
47764;SDS011;33529;49.242;8.670;2023-02-21T09:56:11;12.25;;;6.13;;
47764;SDS011;33529;49.242;8.670;2023-02-21T09:58:45;8.65;;;5.40;;
47764;SDS011;33529;49.242;8.670;2023-02-21T10:01:21;8.20;;;5.55;;
47764;SDS011;33529;49.242;8.670;2023-02-21T10:04:08;7.35;;;5.60;;
47764;SDS011;33529;49.242;8.670;2023-02-21T10:09:26;8.98;;;4.75;;
47764;SDS011;33529;49.242;8.670;2023-02-21T10:12:19;8.85;;;5.18;;
47764;SDS011;33529;49.242;8.670;2023-02-21T10:15:00;7.43;;;5.15;;
47764;SDS011;33529;49.242;8.670;2023-02-21T10:20:27;8.43;;;5.05;;
47764;SDS011;33529;49.242;8.670;2023-02-21T10:23:01;9.25;;;4.60;;
47764;SDS011;33529;49.242;8.670;2023-02-21T10:25:31;9.85;;;4.72;;
47764;SDS011;33529;49.242;8.670;2023-02-21T10:28:00;7.88;;;4.47;;
47764;SDS011;33529;49.242;8.670;2023-02-21T10:30:34;8.90;;;4.05;;
47764;SDS011;33529;49.242;8.670;2023-02-21T10:33:03;7.18;;;4.70;;
47764;SDS011;33529;49.242;8.670;2023-02-21T10:35:32;8.07;;;4.65;;
47764;SDS011;33529;49.242;8.670;2023-02-21T10:38:00;7.55;;;4.70;;
47764;SDS011;33529;49.242;8.670;2023-02-21T10:40:37;7.72;;;4.85;;
47764;SDS011;33529;49.242;8.670;2023-02-21T10:43:10;8.07;;;4.13;;
47764;SDS011;33529;49.242;8.670;2023-02-21T10:48:37;8.13;;;4.45;;
47764;SDS011;33529;49.242;8.670;2023-02-21T10:51:10;6.18;;;4.22;;
47764;SDS011;33529;49.242;8.670;2023-02-21T10:53:45;6.40;;;3.97;;
47764;SDS011;33529;49.242;8.670;2023-02-21T10:58:47;6.88;;;4.35;;
47764;SDS011;33529;49.242;8.670;2023-02-21T11:04:06;10.13;;;3.65;;
47764;SDS011;33529;49.242;8.670;2023-02-21T11:07:03;5.53;;;3.42;;
47764;SDS011;33529;49.242;8.670;2023-02-21T11:09:38;7.25;;;3.72;;
47764;SDS011;33529;49.242;8.670;2023-02-21T11:14:37;8.10;;;4.88;;
47764;SDS011;33529;49.242;8.670;2023-02-21T11:22:22;5.70;;;3.72;;
47764;SDS011;33529;49.242;8.670;2023-02-21T11:25:37;5.95;;;3.28;;
47764;SDS011;33529;49.242;8.670;2023-02-21T11:30:36;6.43;;;4.03;;
47764;SDS011;33529;49.242;8.670;2023-02-21T11:33:05;6.32;;;3.67;;
47764;SDS011;33529;49.242;8.670;2023-02-21T11:35:35;6.15;;;3.45;;
47764;SDS011;33529;49.242;8.670;2023-02-21T11:38:10;6.93;;;4.05;;
47764;SDS011;33529;49.242;8.670;2023-02-21T11:41:03;7.22;;;3.72;;
47764;SDS011;33529;49.242;8.670;2023-02-21T11:44:20;8.02;;;3.35;;
47764;SDS011;33529;49.242;8.670;2023-02-21T11:46:50;6.47;;;3.97;;
47764;SDS011;33529;49.242;8.670;2023-02-21T11:49:38;5.60;;;2.67;;
47764;SDS011;33529;49.242;8.670;2023-02-21T11:52:40;5.30;;;2.88;;
47764;SDS011;33529;49.242;8.670;2023-02-21T11:55:22;5.72;;;3.28;;
47764;SDS011;33529;49.242;8.670;2023-02-21T11:58:05;5.85;;;2.88;;
47764;SDS011;33529;49.242;8.670;2023-02-21T12:00:57;6.10;;;3.63;;
47764;SDS011;33529;49.242;8.670;2023-02-21T12:04:06;7.03;;;2.92;;
47764;SDS011;33529;49.242;8.670;2023-02-21T12:06:47;6.00;;;3.05;;
47764;SDS011;33529;49.242;8.670;2023-02-21T12:12:40;8.15;;;2.95;;
47764;SDS011;33529;49.242;8.670;2023-02-21T12:15:20;5.78;;;2.85;;
47764;SDS011;33529;49.242;8.670;2023-02-21T12:21:32;7.15;;;3.13;;
47764;SDS011;33529;49.242;8.670;2023-02-21T12:29:45;5.30;;;2.88;;
47764;SDS011;33529;49.242;8.670;2023-02-21T12:32:29;4.80;;;2.80;;
47764;SDS011;33529;49.242;8.670;2023-02-21T12:40:18;4.15;;;2.65;;
47764;SDS011;33529;49.242;8.670;2023-02-21T12:42:53;5.32;;;2.13;;
47764;SDS011;33529;49.242;8.670;2023-02-21T12:45:54;4.63;;;2.22;;
47764;SDS011;33529;49.242;8.670;2023-02-21T12:51:15;4.22;;;1.83;;
47764;SDS011;33529;49.242;8.670;2023-02-21T12:54:01;3.97;;;2.10;;
47764;SDS011;33529;49.242;8.670;2023-02-21T12:56:52;3.72;;;1.70;;
47764;SDS011;33529;49.242;8.670;2023-02-21T12:59:29;5.65;;;2.03;;
47764;SDS011;33529;49.242;8.670;2023-02-21T13:02:22;4.05;;;1.90;;
47764;SDS011;33529;49.242;8.670;2023-02-21T13:05:02;6.45;;;2.28;;
47764;SDS011;33529;49.242;8.670;2023-02-21T13:10:13;5.47;;;2.28;;
47764;SDS011;33529;49.242;8.670;2023-02-21T13:12:50;3.60;;;1.52;;
47764;SDS011;33529;49.242;8.670;2023-02-21T13:15:25;3.25;;;1.77;;
47764;SDS011;33529;49.242;8.670;2023-02-21T13:18:02;3.13;;;1.75;;
47764;SDS011;33529;49.242;8.670;2023-02-21T13:21:04;3.47;;;1.30;;
47764;SDS011;33529;49.242;8.670;2023-02-21T13:27:17;3.38;;;1.73;;
47764;SDS011;33529;49.242;8.670;2023-02-21T13:33:19;3.15;;;1.55;;
47764;SDS011;33529;49.242;8.670;2023-02-21T13:35:49;4.80;;;1.70;;
47764;SDS011;33529;49.242;8.670;2023-02-21T13:38:17;2.70;;;1.20;;
47764;SDS011;33529;49.242;8.670;2023-02-21T13:40:50;3.80;;;1.70;;
47764;SDS011;33529;49.242;8.670;2023-02-21T13:43:23;3.58;;;1.40;;
47764;SDS011;33529;49.242;8.670;2023-02-21T13:45:55;2.95;;;1.45;;
47764;SDS011;33529;49.242;8.670;2023-02-21T13:51:48;2.55;;;1.13;;
47764;SDS011;33529;49.242;8.670;2023-02-21T13:54:22;2.88;;;1.23;;
47764;SDS011;33529;49.242;8.670;2023-02-21T13:56:50;2.08;;;0.93;;
47764;SDS011;33529;49.242;8.670;2023-02-21T13:59:31;3.28;;;1.27;;
47764;SDS011;33529;49.242;8.670;2023-02-21T14:02:15;4.05;;;1.10;;
47764;SDS011;33529;49.242;8.670;2023-02-21T14:04:49;3.30;;;1.40;;
47764;SDS011;33529;49.242;8.670;2023-02-21T14:10:21;1.55;;;0.80;;
47764;SDS011;33529;49.242;8.670;2023-02-21T14:12:54;2.15;;;1.35;;
47764;SDS011;33529;49.242;8.670;2023-02-21T14:15:41;2.22;;;1.23;;
47764;SDS011;33529;49.242;8.670;2023-02-21T14:18:20;4.32;;;1.45;;
47764;SDS011;33529;49.242;8.670;2023-02-21T14:20:54;3.05;;;1.10;;
47764;SDS011;33529;49.242;8.670;2023-02-21T14:23:23;1.48;;;0.80;;
47764;SDS011;33529;49.242;8.670;2023-02-21T14:25:58;2.75;;;1.08;;
47764;SDS011;33529;49.242;8.670;2023-02-21T14:31:44;2.83;;;1.42;;
47764;SDS011;33529;49.242;8.670;2023-02-21T14:34:19;2.78;;;0.95;;
47764;SDS011;33529;49.242;8.670;2023-02-21T14:37:21;2.13;;;1.20;;
47764;SDS011;33529;49.242;8.670;2023-02-21T14:56:35;2.17;;;1.15;;
47764;SDS011;33529;49.242;8.670;2023-02-21T15:02:32;2.25;;;1.27;;
47764;SDS011;33529;49.242;8.670;2023-02-21T15:05:22;2.80;;;0.97;;
47764;SDS011;33529;49.242;8.670;2023-02-21T15:07:56;3.10;;;1.08;;
47764;SDS011;33529;49.242;8.670;2023-02-21T15:12:55;1.30;;;0.88;;
47764;SDS011;33529;49.242;8.670;2023-02-21T15:20:31;2.63;;;1.05;;
47764;SDS011;33529;49.242;8.670;2023-02-21T15:25:38;1.25;;;0.50;;
47764;SDS011;33529;49.242;8.670;2023-02-21T15:28:06;1.65;;;0.75;;
47764;SDS011;33529;49.242;8.670;2023-02-21T15:30:54;2.03;;;0.80;;
47764;SDS011;33529;49.242;8.670;2023-02-21T15:33:23;2.10;;;0.85;;
47764;SDS011;33529;49.242;8.670;2023-02-21T15:38:28;1.63;;;0.80;;
47764;SDS011;33529;49.242;8.670;2023-02-21T15:40:59;2.75;;;0.95;;
47764;SDS011;33529;49.242;8.670;2023-02-21T15:46:04;1.45;;;0.90;;
47764;SDS011;33529;49.242;8.670;2023-02-21T15:48:34;2.28;;;1.45;;
47764;SDS011;33529;49.242;8.670;2023-02-21T15:51:02;1.77;;;0.95;;
47764;SDS011;33529;49.242;8.670;2023-02-21T15:53:32;1.83;;;0.97;;
47764;SDS011;33529;49.242;8.670;2023-02-21T15:56:19;2.60;;;1.30;;
47764;SDS011;33529;49.242;8.670;2023-02-21T15:59:09;2.25;;;0.90;;
47764;SDS011;33529;49.242;8.670;2023-02-21T16:04:46;0.68;;;0.60;;
47764;SDS011;33529;49.242;8.670;2023-02-21T16:07:22;1.80;;;0.80;;
47764;SDS011;33529;49.242;8.670;2023-02-21T16:10:04;2.03;;;0.82;;
47764;SDS011;33529;49.242;8.670;2023-02-21T16:12:35;2.00;;;0.95;;
47764;SDS011;33529;49.242;8.670;2023-02-21T16:18:15;2.20;;;0.95;;
47764;SDS011;33529;49.242;8.670;2023-02-21T16:20:43;2.15;;;1.05;;
47764;SDS011;33529;49.242;8.670;2023-02-21T16:28:35;1.83;;;0.88;;
47764;SDS011;33529;49.242;8.670;2023-02-21T16:31:05;1.95;;;1.02;;
47764;SDS011;33529;49.242;8.670;2023-02-21T16:33:35;1.80;;;0.87;;
47764;SDS011;33529;49.242;8.670;2023-02-21T16:36:06;1.65;;;0.82;;
47764;SDS011;33529;49.242;8.670;2023-02-21T16:38:35;4.65;;;1.23;;
47764;SDS011;33529;49.242;8.670;2023-02-21T16:41:02;3.90;;;1.45;;
47764;SDS011;33529;49.242;8.670;2023-02-21T16:43:29;2.00;;;0.85;;
47764;SDS011;33529;49.242;8.670;2023-02-21T16:45:56;3.45;;;1.20;;
47764;SDS011;33529;49.242;8.670;2023-02-21T16:48:27;3.05;;;1.40;;
47764;SDS011;33529;49.242;8.670;2023-02-21T16:50:59;1.73;;;1.10;;
47764;SDS011;33529;49.242;8.670;2023-02-21T16:53:28;2.17;;;1.13;;
47764;SDS011;33529;49.242;8.670;2023-02-21T16:55:56;2.45;;;0.90;;
47764;SDS011;33529;49.242;8.670;2023-02-21T16:58:35;3.38;;;1.73;;
47764;SDS011;33529;49.242;8.670;2023-02-21T17:01:16;2.13;;;0.97;;
47764;SDS011;33529;49.242;8.670;2023-02-21T17:03:51;3.05;;;1.70;;
47764;SDS011;33529;49.242;8.670;2023-02-21T17:06:19;4.15;;;2.15;;
47764;SDS011;33529;49.242;8.670;2023-02-21T17:08:49;3.97;;;2.13;;
47764;SDS011;33529;49.242;8.670;2023-02-21T17:11:16;6.10;;;2.33;;
47764;SDS011;33529;49.242;8.670;2023-02-21T17:13:43;3.50;;;2.00;;
47764;SDS011;33529;49.242;8.670;2023-02-21T17:16:10;5.32;;;2.40;;
47764;SDS011;33529;49.242;8.670;2023-02-21T17:18:37;4.00;;;2.30;;
47764;SDS011;33529;49.242;8.670;2023-02-21T17:21:04;4.82;;;2.33;;
47764;SDS011;33529;49.242;8.670;2023-02-21T17:23:31;5.05;;;3.13;;
47764;SDS011;33529;49.242;8.670;2023-02-21T17:25:58;6.57;;;4.00;;
47764;SDS011;33529;49.242;8.670;2023-02-21T17:28:24;4.72;;;3.00;;
47764;SDS011;33529;49.242;8.670;2023-02-21T17:30:51;5.30;;;2.95;;
47764;SDS011;33529;49.242;8.670;2023-02-21T17:33:18;8.40;;;3.80;;
47764;SDS011;33529;49.242;8.670;2023-02-21T17:35:45;7.70;;;4.72;;
47764;SDS011;33529;49.242;8.670;2023-02-21T17:38:12;8.30;;;5.60;;
47764;SDS011;33529;49.242;8.670;2023-02-21T17:40:39;6.90;;;4.93;;
47764;SDS011;33529;49.242;8.670;2023-02-21T17:43:06;11.98;;;6.25;;
47764;SDS011;33529;49.242;8.670;2023-02-21T17:45:34;7.95;;;5.43;;
47764;SDS011;33529;49.242;8.670;2023-02-21T17:48:01;11.02;;;6.65;;
47764;SDS011;33529;49.242;8.670;2023-02-21T17:50:30;11.13;;;6.15;;